METAR Data
IDs: Format: Raw Decoded Include TAF

Data at: 2208 UTC 10 May 2021

KFNL 102205Z 34004KT 2SM -SN BR OVC008 01/01 A3010 RMK AO2 VIS 1 1/2V2 1/2 CIG 004V010 FZRANO PNO $
KFNL 102156Z 32010G18KT 4SM -SN BR BKN006 OVC009 02/01 A3009 RMK AO2 RAE54SNB54 CIG 004V008 SLP192 T00170011 FZRANO PNO $
KFNL 102056Z 09010G18KT 6SM -RA BR OVC009 05/04 A3006 RMK AO2 CIG 007V011 SLP174 6//// T00500039 52001 PNO $
KFNL 101956Z 10013KT 7SM -RA OVC007 05/04 A3005 RMK AO2 CIG 006V010 SLP173 P0000 T00500044
KFNL 101856Z 11017KT 10SM -RA OVC007 05/04 A3005 RMK AO2 SLP170 P0000 T00500039
KFNL 101831Z 11016KT 10SM -RA OVC007 05/04 A3005 RMK AO2 CIG 006V012 P0000
KFNL 101803Z 11018KT 8SM -RA OVC005 05/04 A3005 RMK AO2 CIG 004V009 P0000
KFNL 101756Z 11014G19KT 8SM -RA OVC007 05/04 A3005 RMK AO2 CIG 004V010 SLP168 P0001 60001 T00500044 10061 20039 52000
KFNL 101705Z 12014G21KT 10SM -RA BKN007 OVC012 06/05 A3005 RMK AO2 CIG 005V010 P0000
KFNL 101656Z 12015KT 10SM -RA BKN005 OVC010 06/05 A3005 RMK AO2 SLP165 P0000 T00560050
KFNL 101613Z 10013KT 10SM -RA BKN007 OVC014 06/05 A3005 RMK AO2 P0000
KFNL 101556Z 11014KT 10SM -RA FEW009 OVC016 06/04 A3005 RMK AO2 RAB30 SLP168 P0000 T00560044
KFNL 101510Z 14009KT 10SM OVC016 06/04 A3005 RMK AO2
KFNL 101456Z 13007KT 10SM OVC014 06/04 A3006 RMK AO2 SLP167 60000 T00610039 58003
KFNL 101356Z 34008KT 10SM OVC012 04/04 A3006 RMK AO2 RAE09 SLP172 P0000 T00440039
KFNL 101305Z AUTO 34009KT 10SM -RA SCT007 BKN012 OVC049 04/03 A3006 RMK AO2 P0000
KFNL 101256Z AUTO 35008KT 10SM -RA BKN007 BKN012 OVC029 04/03 A3006 RMK AO2 RAE07B37 SLP169 P0000 T00390033
KFNL 101248Z AUTO 34009KT 10SM -RA BKN007 BKN010 OVC027 04/03 A3007 RMK AO2 RAE07B37 P0000
KFNL 101240Z AUTO 33011KT 10SM -RA SCT007 BKN018 OVC027 04/03 A3008 RMK AO2 RAE07B37 P0000
KFNL 101211Z AUTO 34008KT 10SM BKN007 BKN012 OVC018 04/03 A3007 RMK AO2 RAE07 CIG 004V008 P0000
KFNL 101203Z AUTO 02006KT 10SM -RA BKN005 OVC010 04/03 A3007 RMK AO2 P0000
KFNL 101156Z AUTO 34008KT 10SM -RA SCT007 OVC010 04/03 A3007 RMK AO2 SLP170 P0000 60000 T00440033 10072 20039 56004
KFNL 101131Z AUTO 34009KT 10SM -RA BKN012 OVC018 04/03 A3006 RMK AO2 P0000
KFNL 101056Z AUTO 34009KT 10SM -RA BKN027 OVC065 04/03 A3007 RMK AO2 SLP165 P0000 T00440033
KFNL 101052Z AUTO 34009KT 10SM -RA BKN027 BKN050 OVC065 04/03 A3007 RMK AO2 P0000
KFNL 101013Z AUTO 35009KT 10SM -RA SCT006 BKN030 OVC070 04/03 A3007 RMK AO2 P0000
KFNL 100956Z AUTO 33009KT 10SM -RA OVC006 04/03 A3008 RMK AO2 CIG 005V009 SLP173 P0000 T00440033
KFNL 100918Z AUTO 33009KT 10SM -RA BKN006 BKN010 OVC027 04/04 A3008 RMK AO2 CIG 004V008 P0000
KFNL 100909Z AUTO 34007KT 10SM -RA SCT006 BKN010 OVC027 05/04 A3008 RMK AO2 P0000
KFNL 100856Z AUTO 34008KT 10SM -RA FEW006 OVC027 05/04 A3008 RMK AO2 SLP169 P0000 60000 T00500044 58003
KFNL 100756Z AUTO 34007KT 10SM -RA BKN027 BKN032 OVC041 05/04 A3010 RMK AO2 SLP174 P0000 T00500044
KFNL 100656Z AUTO 34006KT 9SM -RA OVC026 06/04 A3010 RMK AO2 SLP173 P0000 T00610044 401390039
KFNL 100624Z AUTO 06003KT 10SM -RA BKN028 OVC046 07/05 A3010 RMK AO2 P0000
KFNL 100556Z AUTO 01003KT 10SM -RA BKN032 OVC046 07/05 A3009 RMK AO2 RAB42 SLP171 P0000 60000 T00720050 10100 20067 50003
KFNL 100519Z AUTO 00000KT 10SM OVC030 08/04 A3010 RMK AO2
KFNL 100456Z AUTO 00000KT 10SM OVC028 07/04 A3010 RMK AO2 SLP178 T00720039
KFNL 100356Z AUTO 19003KT 10SM FEW033 BKN043 07/04 A3010 RMK AO2 SLP181 T00670039
KFNL 100256Z AUTO 22006KT 10SM FEW065 BKN100 BKN110 07/04 A3008 RMK AO2 RAE46 SLP176 P0000 60000 T00720039 53013
KFNL 100156Z AUTO 19008KT 10SM -RA BKN040 OVC046 08/02 A3007 RMK AO2 RAB38 SLP171 P0000 T00780022
KFNL 100056Z AUTO 18014KT 10SM SCT034 BKN070 OVC090 09/02 A3005 RMK AO2 SLP165 T00890017
KFNL 092356Z AUTO 17016KT 10SM BKN037 BKN044 BKN110 10/02 A3004 RMK AO2 SLP160 T01000017 10139 20100 55001
KFNL 092256Z 19014G20KT 10SM FEW041 SCT065 12/01 A3002 RMK AO2 SLP149 T01220011
KFNL 092156Z 16012KT 10SM BKN049 OVC060 11/00 A3003 RMK AO2 SLP153 T01110000
KFNL 092056Z 17013KT 10SM FEW043 13/01 A3004 RMK AO2 SLP155 T01280006 56011
KFNL 091956Z 18008G17KT 10SM SCT043 12/01 A3005 RMK AO2 SLP158 T01220006
KFNL 091856Z 18010G17KT 10SM BKN043 12/01 A3006 RMK AO2 SLP158 T01220006
KFNL 091756Z 14007G16KT 10SM BKN043 12/01 A3008 RMK AO2 SLP164 T01170006 10122 20039 57010
KFNL 091656Z 18010KT 10SM BKN033 OVC044 09/01 A3009 RMK AO2 SLP171 T00940006
KFNL 091556Z 20009KT 10SM SCT030 08/01 A3010 RMK AO2 SLP173 T00780006
KFNL 091456Z 18006KT 10SM CLR 07/00 A3011 RMK AO2 SLP177 T00670000 51007
KFNL 091356Z 19010KT 10SM CLR 07/00 A3011 RMK AO2 SLP172 T00670000
KFNL 091256Z AUTO 20006KT 10SM CLR 04/00 A3010 RMK AO2 SLP170 T00440000
KFNL 091156Z AUTO 21004KT 10SM OVC060 04/00 A3009 RMK AO2 SLP165 60000 7//// T00440000 10083 20044 53006
KFNL 091056Z AUTO 00000KT 10SM OVC050 06/00 A3008 RMK AO2 SLP152 T00560000